レイキャビク/ケフラヴィーク の空港の天気 - METARとTAF

ケフラヴィーク国際空港 ( BIKF / KEF ) - アイスランド ケプラヴィーク
飛行場実況気象(Metar)
観測時間07/01 13:30 GMT (07/01 13:30 UTC)
風向・風速北西 6m/s
視程10km以上
天気現象
全天の4割程度の雲 雲底高度 460m
全天の4割程度の雲 雲底高度 3350m
気温14℃
湿度77%
気圧1009hPa
METARBIKF 011330Z 31012KT 9999 SCT015TCU SCT110 14/10 Q1009
過去の天気等 Google飛行場航空写真 Wunderground天気予報

過去48時間のMETAR

飛行場予報(TAF)
発表時間: 7/01 10:44 GMT (7/01 10:44 UTC)
予報対象時間: 1日12時 GMT ~ 2日12時 GMT
風向・風速北西 7m/s
視程10km以上
全天の4割程度の雲 雲底高度 370m
全天の8割程度の雲 雲底高度 610m
1日12時 GMT ~ 1日15時 GMT に一時的に
視程4000m
天気現象弱い霧雨 もや
全天の8割程度の雲 雲底高度 180m
全天を覆う雲 雲底高度 300m
1日20時 GMT ~ 2日7時 GMT に一時的に
全天の8割程度の雲 雲底高度 300m
TAF BIKF 011044Z 0112/0212 31013KT 9999 SCT012 BKN020 TX13/0112Z TN08/0203Z
TEMPO 0112/0115 4000 -DZ BR BKN006 OVC010
TEMPO 0120/0207 BKN010